Time;durP1;ratioP1;P1;durP2;ratioP2;P2;SDS_P1;SDS_P2;PMS_P1;PMS_P2;Temp;Humidity;BMP_temperature;BMP_pressure;BME280_temperature;BME280_humidity;BME280_pressure;Samples;Min_cycle;Max_cycle;Signal;HPM_P1;HPM_P2
2022/08/05 00:01:22;;;;;;;12.33;4.30;;;25.40;56.30;;;;;;5089815;28;20231;-92
2022/08/05 00:03:52;;;;;;;10.80;4.60;;;25.40;56.60;;;;;;5075139;28;20831;-91
2022/08/05 00:06:26;;;;;;;8.73;3.80;;;25.40;56.40;;;;;;5087484;28;20201;-91
2022/08/05 00:08:56;;;;;;;10.77;3.80;;;25.40;56.30;;;;;;5082245;28;20233;-91
2022/08/05 00:11:24;;;;;;;8.80;3.57;;;25.40;56.50;;;;;;5083856;28;20222;-92
2022/08/05 00:13:51;;;;;;;14.60;5.30;;;25.40;56.30;;;;;;5082448;28;20297;-91
2022/08/05 00:16:18;;;;;;;9.43;3.70;;;25.30;56.20;;;;;;5087199;28;20226;-92
2022/08/05 00:18:48;;;;;;;12.87;4.13;;;25.30;56.30;;;;;;5090220;28;20263;-91
2022/08/05 00:21:18;;;;;;;11.83;3.97;;;25.30;56.50;;;;;;5097039;22;20242;-91
2022/08/05 00:23:47;;;;;;;11.80;4.00;;;25.30;56.50;;;;;;5089351;28;20221;-92
2022/08/05 00:26:15;;;;;;;9.20;3.90;;;25.30;56.50;;;;;;5090441;28;20293;-91
2022/08/05 00:28:42;;;;;;;9.73;3.57;;;25.20;57.00;;;;;;5090219;28;20203;-91
2022/08/05 00:31:09;;;;;;;9.90;4.03;;;25.20;56.40;;;;;;5089810;28;20214;-91
2022/08/05 00:33:37;;;;;;;9.13;3.63;;;25.30;56.60;;;;;;5090053;28;20635;-91
2022/08/05 00:36:07;;;;;;;11.77;3.57;;;25.20;56.70;;;;;;5090317;28;20267;-91
2022/08/05 00:38:39;;;;;;;14.17;4.63;;;25.20;56.80;;;;;;5088614;28;20203;-90
2022/08/05 00:41:06;;;;;;;6.70;3.10;;;25.20;57.30;;;;;;5090317;28;20209;-92
2022/08/05 00:43:34;;;;;;;6.97;3.27;;;25.20;56.50;;;;;;5090465;28;20260;-92
2022/08/05 00:46:01;;;;;;;8.67;4.00;;;25.20;56.40;;;;;;5089736;28;20810;-91
2022/08/05 00:48:39;;;;;;;11.77;4.30;;;25.20;56.40;;;;;;5107528;28;20205;-92
2022/08/05 00:51:40;;;;;;;12.67;3.70;;;25.10;56.40;;;;;;5112434;28;20202;-92
2022/08/05 00:54:09;;;;;;;9.37;3.57;;;25.10;56.70;;;;;;5092248;28;20260;-92
2022/08/05 00:56:38;;;;;;;4.67;1.90;;;25.10;56.40;;;;;;5098198;28;20298;-92
2022/08/05 00:59:08;;;;;;;5.07;2.37;;;25.00;56.40;;;;;;5094177;28;20203;-94
2022/08/05 01:01:50;;;;;;;8.63;3.47;;;25.00;56.40;;;;;;5099972;28;20210;-91
2022/08/05 01:04:17;;;;;;;5.93;2.43;;;25.00;56.60;;;;;;5101815;28;20298;-91
2022/08/05 01:06:44;;;;;;;4.77;2.30;;;24.90;56.20;;;;;;5106685;28;20229;-89
2022/08/05 01:09:12;;;;;;;7.57;2.17;;;25.00;56.30;;;;;;5080604;28;20235;-94
2022/08/05 01:11:43;;;;;;;4.07;2.17;;;24.90;56.30;;;;;;5093080;28;20226;-92
2022/08/05 01:14:14;;;;;;;9.80;3.73;;;24.90;56.30;;;;;;5092804;28;20251;-91
2022/08/05 01:16:49;;;;;;;7.50;3.07;;;24.80;56.20;;;;;;5074976;28;20749;-92
2022/08/05 01:19:27;;;;;;;11.80;4.23;;;24.80;56.40;;;;;;5082346;28;20193;-93
2022/08/05 01:22:25;;;;;;;11.03;4.13;;;24.80;57.00;;;;;;5085505;28;20219;-91
2022/08/05 01:28:27;;;;;;;8.83;3.10;;;24.80;56.60;;;;;;5093119;28;20677;-93
2022/08/05 01:31:13;;;;;;;9.37;3.10;;;24.80;56.60;;;;;;5081494;28;20756;-93
2022/08/05 01:33:49;;;;;;;8.90;2.90;;;24.70;56.60;;;;;;5079428;28;20214;-91
2022/08/05 01:36:20;;;;;;;8.80;2.77;;;24.70;56.60;;;;;;5078482;28;20321;-92
2022/08/05 01:38:48;;;;;;;6.57;2.83;;;24.60;56.40;;;;;;5069724;28;20210;-91
2022/08/05 01:41:40;;;;;;;6.00;2.73;;;24.50;56.30;;;;;;5076836;28;20242;-92
2022/08/05 01:44:10;;;;;;;15.40;4.93;;;24.50;56.70;;;;;;5086802;28;20221;-92
2022/08/05 01:46:39;;;;;;;8.70;3.17;;;24.50;56.40;;;;;;5067633;28;20261;-91
2022/08/05 01:49:08;;;;;;;11.63;4.03;;;24.50;56.50;;;;;;5068420;28;20233;-91
2022/08/05 01:51:38;;;;;;;8.57;3.07;;;24.50;56.70;;;;;;5076216;28;20221;-92
2022/08/05 01:54:08;;;;;;;10.80;4.33;;;24.40;56.50;;;;;;5088409;28;20950;-91
2022/08/05 01:56:44;;;;;;;7.77;2.83;;;24.40;56.60;;;;;;5080769;28;20699;-92
2022/08/05 01:59:17;;;;;;;10.27;3.93;;;24.40;56.70;;;;;;5082606;28;20603;-91
2022/08/05 02:01:49;;;;;;;8.07;3.20;;;24.40;56.70;;;;;;5063585;28;20244;-92
2022/08/05 02:04:20;;;;;;;12.27;4.77;;;24.40;56.70;;;;;;5068126;28;20207;-92
2022/08/05 02:06:48;;;;;;;8.73;3.33;;;24.30;56.60;;;;;;5088641;28;20202;-91
2022/08/05 02:09:15;;;;;;;9.47;3.43;;;24.30;56.70;;;;;;5088293;28;20234;-91
2022/08/05 02:11:47;;;;;;;6.40;2.97;;;24.30;56.70;;;;;;5087335;28;20276;-91
2022/08/05 02:14:21;;;;;;;9.83;3.70;;;24.20;56.80;;;;;;5080966;28;20211;-92
2022/08/05 02:20:02;;;;;;;9.17;3.87;;;24.20;57.10;;;;;;5073853;28;20650;-91
2022/08/05 02:22:33;;;;;;;7.57;3.20;;;24.20;56.90;;;;;;5089088;28;20209;-91
2022/08/05 02:25:05;;;;;;;9.33;3.67;;;24.20;56.90;;;;;;5086939;28;20328;-91
2022/08/05 02:27:37;;;;;;;13.73;4.67;;;24.10;57.00;;;;;;5087818;28;20321;-92
2022/08/05 02:30:10;;;;;;;9.83;4.13;;;24.10;57.10;;;;;;5076601;28;20200;-92
2022/08/05 02:32:39;;;;;;;6.83;2.97;;;24.10;57.20;;;;;;5067905;28;20294;-93
2022/08/05 02:35:12;;;;;;;13.40;4.37;;;24.10;57.20;;;;;;5076012;28;20276;-92
2022/08/05 02:37:41;;;;;;;7.17;3.07;;;24.10;57.30;;;;;;5088442;28;20239;-91
2022/08/05 02:40:10;;;;;;;8.80;4.00;;;24.00;57.20;;;;;;5085212;28;20746;-92
2022/08/05 02:42:39;;;;;;;11.37;3.87;;;24.00;57.30;;;;;;5088122;28;20690;-92
2022/08/05 02:45:32;;;;;;;9.03;3.43;;;24.00;57.30;;;;;;5072094;28;20267;-92
2022/08/05 02:48:03;;;;;;;10.73;3.47;;;23.90;57.50;;;;;;5068242;28;20877;-91
2022/08/05 02:50:30;;;;;;;18.43;6.40;;;23.90;57.30;;;;;;5073486;28;20253;-91
2022/08/05 02:52:59;;;;;;;6.83;3.13;;;23.90;57.20;;;;;;5079334;28;20276;-92
2022/08/05 02:55:28;;;;;;;11.87;4.73;;;23.80;57.20;;;;;;5087063;28;20310;-92
2022/08/05 02:57:56;;;;;;;7.43;3.17;;;23.80;57.20;;;;;;5089667;28;20613;-92
2022/08/05 03:00:37;;;;;;;10.27;4.03;;;23.80;57.20;;;;;;5087226;28;20981;-92
2022/08/05 03:03:05;;;;;;;8.63;3.50;;;23.80;57.50;;;;;;5086653;28;20212;-92
2022/08/05 03:05:32;;;;;;;7.70;3.10;;;23.80;57.20;;;;;;5078782;28;20206;-92
2022/08/05 03:08:00;;;;;;;9.40;3.67;;;23.70;57.20;;;;;;5076788;28;20236;-92
2022/08/05 03:10:43;;;;;;;9.87;3.90;;;23.70;57.20;;;;;;5096376;28;20655;-92
2022/08/05 03:13:23;;;;;;;9.57;3.60;;;23.70;57.40;;;;;;5087358;28;20231;-92
2022/08/05 03:15:51;;;;;;;9.23;3.47;;;23.70;57.30;;;;;;5078171;28;20666;-93
2022/08/05 03:18:18;;;;;;;21.33;7.27;;;23.60;57.20;;;;;;5072583;28;20219;-93
2022/08/05 03:20:45;;;;;;;24.17;8.63;;;23.60;57.20;;;;;;5079686;22;20211;-91
2022/08/05 03:23:15;;;;;;;9.93;3.17;;;23.60;57.30;;;;;;5033526;28;20212;-92
2022/08/05 03:26:10;;;;;;;7.60;3.30;;;23.50;57.20;;;;;;5030972;28;20216;-93
2022/08/05 03:28:40;;;;;;;11.73;3.70;;;23.50;57.50;;;;;;5032946;28;20637;-92
2022/08/05 03:31:10;;;;;;;17.90;4.33;;;23.40;57.30;;;;;;5031055;28;20216;-92
2022/08/05 03:33:46;;;;;;;12.77;4.10;;;23.50;57.40;;;;;;5031177;28;20211;-92
2022/08/05 03:36:13;;;;;;;11.13;3.70;;;23.40;57.50;;;;;;5030922;28;20211;-92
2022/08/05 03:38:41;;;;;;;8.40;3.27;;;23.40;57.40;;;;;;5031077;28;20267;-92
2022/08/05 03:41:16;;;;;;;9.17;3.40;;;23.40;57.50;;;;;;5029985;28;20290;-91
2022/08/05 03:43:43;;;;;;;8.03;3.20;;;23.30;57.70;;;;;;5011131;28;20213;-92
2022/08/05 03:46:11;;;;;;;10.73;3.57;;;23.30;57.60;;;;;;5031631;28;21078;-92
2022/08/05 03:48:39;;;;;;;7.33;2.97;;;23.30;57.70;;;;;;5030570;28;20243;-91
2022/08/05 03:51:12;;;;;;;8.77;3.40;;;23.20;57.60;;;;;;5038924;28;20236;-91
2022/08/05 03:53:45;;;;;;;10.23;3.00;;;23.20;58.00;;;;;;5042303;28;20223;-91
2022/08/05 03:56:28;;;;;;;3.90;2.17;;;23.20;57.90;;;;;;5036840;28;20246;-93
2022/08/05 03:59:01;;;;;;;5.37;2.00;;;23.10;58.10;;;;;;5034966;28;20204;-91
2022/08/05 04:01:42;;;;;;;4.77;2.30;;;23.10;58.10;;;;;;5030746;28;20255;-92
2022/08/05 04:04:16;;;;;;;7.90;3.20;;;23.10;58.20;;;;;;5031426;28;20205;-92
2022/08/05 04:06:47;;;;;;;6.23;2.63;;;23.10;58.10;;;;;;5028442;28;20270;-92
2022/08/05 04:09:25;;;;;;;8.17;3.27;;;23.00;58.00;;;;;;5032558;28;20671;-89
2022/08/05 04:11:52;;;;;;;7.93;3.17;;;23.00;58.10;;;;;;5047981;28;20283;-91
2022/08/05 04:14:22;;;;;;;7.03;2.40;;;22.90;58.00;;;;;;5034998;28;20268;-92
2022/08/05 04:16:51;;;;;;;5.90;2.50;;;22.90;58.30;;;;;;5015598;28;20231;-92
2022/08/05 04:19:19;;;;;;;10.97;4.00;;;22.90;58.50;;;;;;5014126;28;20206;-93
2022/08/05 04:21:48;;;;;;;8.13;3.43;;;22.90;58.50;;;;;;5012615;28;20228;-92
2022/08/05 04:24:16;;;;;;;9.40;3.60;;;22.80;58.60;;;;;;5010909;28;20200;-91
2022/08/05 04:26:49;;;;;;;9.30;3.30;;;22.80;58.60;;;;;;5011109;28;20300;-93
2022/08/05 04:29:16;;;;;;;9.63;3.57;;;22.80;58.60;;;;;;5009382;28;20944;-93
2022/08/05 04:31:43;;;;;;;9.67;3.80;;;22.80;58.70;;;;;;5010023;28;20640;-93
2022/08/05 04:34:12;;;;;;;12.87;4.40;;;22.80;58.90;;;;;;5011463;28;20256;-93
2022/08/05 04:36:40;;;;;;;9.83;3.23;;;22.80;59.10;;;;;;5030507;28;20220;-93
2022/08/05 04:39:07;;;;;;;9.43;3.80;;;22.70;59.00;;;;;;5020729;28;20862;-92
2022/08/05 04:41:34;;;;;;;13.63;4.43;;;22.70;59.00;;;;;;5027147;28;20209;-93
2022/08/05 04:44:02;;;;;;;13.63;4.63;;;22.70;59.10;;;;;;5026831;28;20271;-92
2022/08/05 04:46:29;;;;;;;11.07;4.40;;;22.70;59.20;;;;;;5028539;28;20216;-93
2022/08/05 04:48:56;;;;;;;8.33;3.63;;;22.60;59.20;;;;;;5013947;28;20283;-93
2022/08/05 04:51:24;;;;;;;9.67;3.50;;;22.60;59.30;;;;;;5009192;28;20257;-92
2022/08/05 04:53:51;;;;;;;8.33;3.43;;;22.60;59.40;;;;;;5009636;28;20209;-91
2022/08/05 04:56:19;;;;;;;8.73;3.60;;;22.60;59.40;;;;;;5013503;28;20212;-92
2022/08/05 04:59:09;;;;;;;10.03;3.20;;;22.60;59.60;;;;;;5017770;28;20203;-92
2022/08/05 05:01:37;;;;;;;9.30;3.33;;;22.60;59.90;;;;;;5009373;28;20628;-91
2022/08/05 05:04:04;;;;;;;9.83;4.07;;;22.60;59.60;;;;;;5010936;28;20265;-91
2022/08/05 05:06:34;;;;;;;12.00;3.50;;;22.60;59.70;;;;;;5009732;28;20192;-91
2022/08/05 05:09:01;;;;;;;6.80;3.10;;;22.60;59.90;;;;;;5009936;28;20244;-91
2022/08/05 05:11:30;;;;;;;9.53;3.53;;;22.50;59.80;;;;;;5008567;28;20720;-91
2022/08/05 05:13:57;;;;;;;8.70;3.43;;;22.60;59.90;;;;;;5010289;28;20571;-92
2022/08/05 05:16:24;;;;;;;9.30;3.13;;;22.60;59.90;;;;;;5009545;28;20214;-91
2022/08/05 05:18:51;;;;;;;7.93;3.10;;;22.60;59.90;;;;;;5009481;28;20222;-92
2022/08/05 05:21:18;;;;;;;7.70;2.90;;;22.50;60.00;;;;;;5008730;28;20244;-91
2022/08/05 05:23:47;;;;;;;9.03;3.47;;;22.60;60.10;;;;;;5010053;28;20209;-91
2022/08/05 05:26:21;;;;;;;15.87;5.10;;;22.50;60.30;;;;;;5015013;28;20213;-91
2022/08/05 05:28:51;;;;;;;7.20;2.97;;;22.60;60.80;;;;;;5012783;28;20312;-91
2022/08/05 05:31:18;;;;;;;12.87;4.13;;;22.60;60.50;;;;;;5011020;28;20572;-93
2022/08/05 05:33:45;;;;;;;10.03;3.67;;;22.60;60.50;;;;;;5009555;28;20248;-93
2022/08/05 05:36:17;;;;;;;8.27;3.17;;;22.70;60.70;;;;;;5026180;28;20576;-92
2022/08/05 05:38:50;;;;;;;6.50;2.47;;;22.70;61.00;;;;;;5024428;28;20240;-91
2022/08/05 05:41:17;;;;;;;9.17;3.13;;;22.70;60.90;;;;;;5025850;28;20235;-92
2022/08/05 05:43:44;;;;;;;11.77;3.73;;;22.70;60.70;;;;;;5036976;28;20239;-92
2022/08/05 05:46:12;;;;;;;11.97;3.93;;;22.80;60.80;;;;;;5042479;28;20214;-92
2022/08/05 05:48:40;;;;;;;6.37;2.57;;;22.70;60.70;;;;;;5020281;28;20209;-91
2022/08/05 05:51:07;;;;;;;12.80;4.40;;;22.80;60.90;;;;;;4998385;28;20197;-92
2022/08/05 05:53:35;;;;;;;4.93;2.00;;;22.90;61.10;;;;;;5036368;28;20258;-92
2022/08/05 05:56:05;;;;;;;10.10;3.33;;;22.80;60.90;;;;;;5031734;28;20258;-92
2022/08/05 05:58:32;;;;;;;7.30;2.83;;;22.90;61.20;;;;;;5019020;28;20233;-91
2022/08/05 06:01:00;;;;;;;4.43;2.27;;;22.90;61.00;;;;;;5016931;28;20252;-92
2022/08/05 06:03:27;;;;;;;10.70;4.27;;;22.90;61.10;;;;;;5011233;28;20200;-91
2022/08/05 06:05:57;;;;;;;6.47;2.57;;;23.00;61.20;;;;;;5010220;28;21281;-91
2022/08/05 06:08:25;;;;;;;7.50;3.43;;;23.00;61.30;;;;;;5009940;28;20213;-92
2022/08/05 06:10:53;;;;;;;10.40;3.63;;;23.10;61.30;;;;;;5008416;28;20231;-91
2022/08/05 06:13:21;;;;;;;8.93;3.60;;;23.10;61.20;;;;;;5009067;28;20240;-92
2022/08/05 06:15:50;;;;;;;7.37;3.13;;;23.10;61.30;;;;;;5010040;28;20239;-92
2022/08/05 06:18:18;;;;;;;10.03;3.97;;;23.10;61.00;;;;;;5008812;28;20217;-91
2022/08/05 06:20:45;;;;;;;9.17;3.30;;;23.20;61.00;;;;;;5009153;28;20344;-92
2022/08/05 06:23:12;;;;;;;10.37;3.20;;;23.20;60.90;;;;;;5010285;28;20926;-90
2022/08/05 06:25:40;;;;;;;8.47;2.97;;;23.30;61.00;;;;;;5010017;28;20209;-92
2022/08/05 06:28:09;;;;;;;13.87;5.03;;;23.30;60.80;;;;;;5009970;28;20216;-93
2022/08/05 06:30:39;;;;;;;6.67;2.40;;;23.30;60.80;;;;;;5015912;28;20204;-92
2022/08/05 06:35:43;;;;;;;10.67;2.93;;;23.40;61.10;;;;;;5096534;22;20233;-92
2022/08/05 06:38:10;;;;;;;10.73;3.53;;;23.50;60.80;;;;;;5096227;28;20880;-92
2022/08/05 06:40:38;;;;;;;9.10;3.60;;;23.50;60.50;;;;;;5111047;28;20220;-94
2022/08/05 06:43:11;;;;;;;7.93;3.03;;;23.60;60.40;;;;;;5098087;28;20646;-92
2022/08/05 06:45:40;;;;;;;6.30;2.00;;;23.60;60.40;;;;;;5084968;28;20210;-92
2022/08/05 06:48:08;;;;;;;7.73;2.90;;;23.60;60.90;;;;;;5094056;28;20207;-93
2022/08/05 06:50:42;;;;;;;6.13;2.30;;;23.70;59.80;;;;;;5093371;28;20202;-92
2022/08/05 06:53:09;;;;;;;7.07;2.57;;;23.70;59.60;;;;;;5090323;28;20212;-91
2022/08/05 06:55:38;;;;;;;8.37;2.83;;;23.80;59.40;;;;;;5094856;28;20217;-93
2022/08/05 06:58:05;;;;;;;8.20;2.93;;;23.80;59.20;;;;;;5109679;28;20260;-88
2022/08/05 07:00:32;;;;;;;6.07;2.60;;;23.80;58.70;;;;;;5111402;28;20209;-91
2022/08/05 07:03:01;;;;;;;6.20;2.37;;;23.90;58.60;;;;;;5101036;28;20289;-92
2022/08/05 07:05:29;;;;;;;3.60;2.00;;;23.90;58.30;;;;;;5098327;28;20199;-93
2022/08/05 07:07:57;;;;;;;6.70;2.40;;;24.00;58.20;;;;;;5094797;28;20218;-91
2022/08/05 07:10:24;;;;;;;8.87;3.20;;;24.00;58.00;;;;;;5094188;28;20235;-92
2022/08/05 07:18:24;;;;;;;10.60;3.97;;;24.00;57.70;;;;;;5073055;28;20771;-92
2022/08/05 07:20:52;;;;;;;5.07;1.60;;;24.10;58.20;;;;;;5075159;28;20207;-92
2022/08/05 07:23:52;;;;;;;8.60;3.17;;;24.10;58.40;;;;;;5070340;28;20215;-91
2022/08/05 07:26:19;;;;;;;6.17;2.53;;;24.10;58.70;;;;;;5070747;28;20210;-92
2022/08/05 07:28:53;;;;;;;14.70;4.43;;;24.10;58.70;;;;;;5072025;28;20204;-93
2022/08/05 07:31:20;;;;;;;7.67;3.40;;;24.20;58.60;;;;;;5091729;28;20202;-93
2022/08/05 07:33:48;;;;;;;9.50;3.60;;;24.30;58.70;;;;;;5070044;28;20215;-92
2022/08/05 07:36:15;;;;;;;7.50;2.93;;;24.30;58.50;;;;;;5072170;28;20207;-93
2022/08/05 07:38:43;;;;;;;13.90;4.53;;;24.40;58.50;;;;;;5072838;28;20227;-92
2022/08/05 07:41:12;;;;;;;6.93;2.23;;;24.40;58.30;;;;;;5100550;28;20194;-91
2022/08/05 07:43:41;;;;;;;10.23;3.47;;;24.50;58.00;;;;;;5092869;28;20217;-93
2022/08/05 07:46:09;;;;;;;6.53;2.17;;;24.60;57.50;;;;;;5072947;28;20257;-93
2022/08/05 07:48:36;;;;;;;9.23;3.20;;;24.70;57.40;;;;;;5076415;22;20239;-92
2022/08/05 07:51:06;;;;;;;8.10;2.80;;;24.70;57.40;;;;;;5051850;28;20223;-92
2022/08/05 07:53:52;;;;;;;12.07;3.97;;;24.80;57.30;;;;;;5055076;28;20204;-92
2022/08/05 07:56:20;;;;;;;8.90;2.37;;;24.80;57.30;;;;;;5057462;28;20253;-94
2022/08/05 07:58:47;;;;;;;5.77;2.33;;;24.80;57.00;;;;;;5056870;28;20234;-94
2022/08/05 08:01:14;;;;;;;7.17;2.67;;;24.80;56.50;;;;;;5070924;28;20795;-92
2022/08/05 08:03:42;;;;;;;4.23;1.93;;;24.80;56.70;;;;;;5072907;28;20191;-92
2022/08/05 08:06:13;;;;;;;9.40;3.17;;;24.80;56.50;;;;;;5072687;28;20200;-93
2022/08/05 08:08:40;;;;;;;6.23;2.30;;;24.80;56.50;;;;;;5071636;28;20230;-93
2022/08/05 08:11:08;;;;;;;4.80;2.37;;;24.80;56.60;;;;;;5072423;28;20288;-93
2022/08/05 08:13:35;;;;;;;8.80;3.37;;;24.80;56.50;;;;;;5072041;28;20207;-94
2022/08/05 08:16:02;;;;;;;5.50;2.37;;;24.80;56.30;;;;;;5069679;28;20215;-93
2022/08/05 08:18:30;;;;;;;9.50;2.87;;;24.80;56.30;;;;;;5053323;28;20322;-93
2022/08/05 08:20:57;;;;;;;12.57;3.43;;;24.80;56.40;;;;;;5055365;28;20200;-90
2022/08/05 08:23:29;;;;;;;6.40;2.27;;;24.80;56.40;;;;;;5069530;28;20221;-94
2022/08/05 08:25:58;;;;;;;9.10;2.33;;;24.80;55.90;;;;;;5070119;28;20252;-96
2022/08/05 08:28:25;;;;;;;10.73;3.90;;;24.80;56.00;;;;;;5071832;28;20644;-93
2022/08/05 08:30:54;;;;;;;5.00;1.90;;;24.70;56.20;;;;;;5071220;28;20212;-94
2022/08/05 08:33:24;;;;;;;5.50;2.37;;;24.70;56.10;;;;;;5071795;28;20203;-94
2022/08/05 08:35:51;;;;;;;4.00;1.63;;;24.70;56.10;;;;;;5070385;28;20234;-93
2022/08/05 08:38:19;;;;;;;4.97;2.10;;;24.70;56.30;;;;;;5069870;28;20238;-94
2022/08/05 08:40:57;;;;;;;5.37;2.20;;;24.70;56.10;;;;;;5070713;28;20208;-92
2022/08/05 08:43:26;;;;;;;8.33;2.57;;;24.70;55.90;;;;;;5071500;28;20240;-92
2022/08/05 08:45:57;;;;;;;11.43;4.17;;;24.70;55.50;;;;;;5071088;28;20215;-92
2022/08/05 08:48:26;;;;;;;6.57;2.43;;;24.70;56.00;;;;;;5070594;28;20576;-95
2022/08/05 08:50:55;;;;;;;5.77;1.53;;;24.80;56.20;;;;;;5069017;28;20265;-93
2022/08/05 08:53:27;;;;;;;4.63;2.03;;;24.80;56.00;;;;;;5071729;28;20210;-95
2022/08/05 08:55:56;;;;;;;4.30;1.63;;;24.80;55.80;;;;;;5071837;28;20195;-93
2022/08/05 08:58:23;;;;;;;7.83;3.03;;;24.90;55.90;;;;;;5070440;28;20637;-94
2022/08/05 09:00:50;;;;;;;7.33;2.83;;;24.90;55.70;;;;;;5070516;28;20199;-93
2022/08/05 09:03:18;;;;;;;8.40;2.40;;;25.10;55.30;;;;;;5069995;28;20239;-95
2022/08/05 09:05:47;;;;;;;7.40;2.63;;;25.20;55.70;;;;;;5069567;28;20231;-94
2022/08/05 09:08:23;;;;;;;6.93;2.70;;;25.30;55.50;;;;;;5068591;28;20203;-93
2022/08/05 09:10:52;;;;;;;5.80;2.40;;;25.50;55.30;;;;;;5066839;28;20264;-94
2022/08/05 09:13:21;;;;;;;5.97;2.30;;;25.70;55.60;;;;;;5060600;28;20200;-95
2022/08/05 09:15:59;;;;;;;14.00;3.50;;;25.90;55.00;;;;;;5069936;28;20664;-92
2022/08/05 09:18:27;;;;;;;5.73;2.33;;;26.10;54.70;;;;;;5072285;28;20234;-93
2022/08/05 09:20:55;;;;;;;7.60;2.93;;;26.30;55.20;;;;;;5070722;28;20207;-94
2022/08/05 09:23:22;;;;;;;6.80;2.20;;;26.50;54.90;;;;;;5080550;28;20183;-95
2022/08/05 09:26:19;;;;;;;10.13;2.97;;;26.70;54.10;;;;;;5072108;28;20257;-92
2022/08/05 09:28:48;;;;;;;7.50;2.83;;;26.90;52.90;;;;;;5070026;28;20208;-91
2022/08/05 09:31:19;;;;;;;5.93;2.37;;;27.10;53.30;;;;;;5072108;28;20659;-91
2022/08/05 09:33:58;;;;;;;4.43;1.90;;;27.20;53.10;;;;;;5070594;28;20195;-93
2022/08/05 09:36:43;;;;;;;7.90;3.07;;;27.30;52.50;;;;;;5071130;28;20265;-94
2022/08/05 09:39:12;;;;;;;5.43;2.10;;;27.40;52.20;;;;;;5071214;28;20226;-93
2022/08/05 09:41:56;;;;;;;4.17;1.83;;;27.50;52.30;;;;;;5065781;28;20615;-93
2022/08/05 09:44:40;;;;;;;6.70;2.63;;;27.60;51.50;;;;;;5077382;28;20242;-93
2022/08/05 09:47:13;;;;;;;4.80;2.07;;;27.70;51.50;;;;;;5086409;28;20229;-91
2022/08/05 09:49:45;;;;;;;7.27;2.80;;;27.70;51.50;;;;;;5076416;28;20327;-96
2022/08/05 09:52:23;;;;;;;5.03;1.90;;;27.80;52.00;;;;;;5086148;28;20205;-92
2022/08/05 09:54:58;;;;;;;5.17;1.90;;;27.80;51.30;;;;;;5074397;28;20207;-95
2022/08/05 09:57:35;;;;;;;8.73;3.43;;;27.90;50.50;;;;;;5061212;28;20239;-93
2022/08/05 10:00:12;;;;;;;7.53;2.43;;;28.00;49.80;;;;;;5066334;28;20274;-92
2022/08/05 10:02:42;;;;;;;3.60;1.70;;;28.10;50.10;;;;;;5051328;28;20638;-93
2022/08/05 10:05:11;;;;;;;5.20;2.20;;;28.20;50.10;;;;;;5064729;28;20219;-92
2022/08/05 10:07:53;;;;;;;5.33;2.40;;;28.30;50.00;;;;;;5069772;28;20210;-93
2022/08/05 10:10:21;;;;;;;5.80;2.53;;;28.40;49.10;;;;;;5067746;28;20265;-92
2022/08/05 10:12:52;;;;;;;9.73;3.47;;;28.50;49.60;;;;;;5064017;28;20207;-92
2022/08/05 10:15:24;;;;;;;6.80;2.37;;;28.60;49.50;;;;;;5074114;28;20200;-93
2022/08/05 10:18:12;;;;;;;6.70;2.30;;;28.70;48.40;;;;;;5083016;28;20946;-93
2022/08/05 10:20:47;;;;;;;4.57;1.93;;;28.80;47.70;;;;;;5064611;28;20808;-93
2022/08/05 10:23:20;;;;;;;7.57;2.70;;;28.90;48.50;;;;;;5067858;28;20247;-92
2022/08/05 10:25:48;;;;;;;3.93;1.70;;;29.00;48.60;;;;;;5073412;28;20203;-94
2022/08/05 10:28:20;;;;;;;6.60;2.80;;;29.10;48.30;;;;;;5071774;28;20636;-94
2022/08/05 10:30:54;;;;;;;4.47;1.80;;;29.10;48.00;;;;;;5067481;28;20207;-94
2022/08/05 10:33:40;;;;;;;8.20;3.27;;;29.30;47.10;;;;;;5070556;28;20760;-92
2022/08/05 10:36:08;;;;;;;7.50;2.77;;;29.40;46.30;;;;;;5053774;28;20210;-91
2022/08/05 10:38:36;;;;;;;6.57;2.83;;;29.50;47.40;;;;;;5057914;28;20226;-92
2022/08/05 10:41:19;;;;;;;8.43;3.57;;;29.60;48.40;;;;;;5062235;28;20675;-91
2022/08/05 10:43:51;;;;;;;5.33;2.30;;;29.70;46.20;;;;;;5068531;28;20641;-92
2022/08/05 10:46:21;;;;;;;4.00;1.80;;;29.70;45.70;;;;;;5069384;28;20203;-93
2022/08/05 10:48:52;;;;;;;7.00;2.33;;;29.80;46.00;;;;;;5069423;28;20238;-93
2022/08/05 10:51:21;;;;;;;5.47;2.43;;;29.90;45.30;;;;;;5070310;28;20206;-92
2022/08/05 10:53:55;;;;;;;6.97;2.97;;;29.90;45.60;;;;;;5069446;28;20214;-94
2022/08/05 10:56:25;;;;;;;11.47;2.20;;;29.90;44.50;;;;;;5068434;28;20265;-93
2022/08/05 10:59:10;;;;;;;4.67;2.13;;;29.90;44.10;;;;;;5051222;28;20224;-93
2022/08/05 11:01:41;;;;;;;4.23;1.93;;;29.80;44.40;;;;;;5049104;28;20207;-93
2022/08/05 11:04:11;;;;;;;9.17;3.17;;;29.70;44.30;;;;;;5067276;28;20199;-93
2022/08/05 11:07:05;;;;;;;4.67;1.97;;;29.60;44.90;;;;;;5069007;28;20207;-94
2022/08/05 11:09:49;;;;;;;5.30;1.77;;;29.50;44.40;;;;;;5058460;28;20238;-92
2022/08/05 11:12:45;;;;;;;5.43;2.37;;;29.50;44.80;;;;;;5079047;28;20615;-92
2022/08/05 11:15:44;;;;;;;5.87;2.27;;;29.40;44.90;;;;;;5062452;28;20204;-93
2022/08/05 11:18:26;;;;;;;8.73;2.83;;;29.40;45.00;;;;;;5059869;28;20211;-93
2022/08/05 11:20:54;;;;;;;4.53;2.03;;;29.40;45.20;;;;;;5066734;28;20207;-92
2022/08/05 11:23:36;;;;;;;3.70;1.63;;;29.40;45.70;;;;;;5066309;28;20307;-92
2022/08/05 11:26:08;;;;;;;5.17;2.03;;;29.40;45.40;;;;;;5073244;28;20272;-92
2022/08/05 11:28:46;;;;;;;6.50;2.07;;;29.40;45.40;;;;;;5082720;28;20199;-93
2022/08/05 11:31:29;;;;;;;5.43;2.20;;;29.50;45.10;;;;;;5076546;28;20203;-92
2022/08/05 11:34:05;;;;;;;4.97;2.10;;;29.60;45.00;;;;;;5075029;28;20206;-93
2022/08/05 11:36:50;;;;;;;8.57;2.77;;;29.60;44.90;;;;;;5075128;28;20794;-92
2022/08/05 11:39:33;;;;;;;3.97;1.97;;;29.60;44.70;;;;;;5077729;28;20219;-92
2022/08/05 11:42:03;;;;;;;8.03;3.03;;;29.70;45.30;;;;;;5054857;28;20212;-93
2022/08/05 11:44:39;;;;;;;5.73;2.07;;;29.80;45.10;;;;;;5057262;28;20207;-94
2022/08/05 11:47:06;;;;;;;4.53;2.07;;;29.80;44.60;;;;;;5071894;28;20202;-94
2022/08/05 11:49:40;;;;;;;4.10;1.90;;;29.90;44.50;;;;;;5079031;28;20578;-92
2022/08/05 11:52:10;;;;;;;10.33;4.13;;;29.90;43.80;;;;;;5076297;28;20195;-93
2022/08/05 11:54:39;;;;;;;6.10;2.47;;;29.90;43.80;;;;;;5075475;28;20191;-93
2022/08/05 11:57:10;;;;;;;4.67;1.90;;;29.90;44.10;;;;;;5078668;28;20214;-93
2022/08/05 11:59:37;;;;;;;2.80;1.17;;;29.80;44.10;;;;;;5079421;28;20230;-92
2022/08/05 12:02:07;;;;;;;4.03;1.67;;;29.80;44.20;;;;;;5077264;28;20648;-93
2022/08/05 12:04:48;;;;;;;6.93;3.03;;;29.90;44.00;;;;;;5083785;28;20246;-96
2022/08/05 12:10:13;;;;;;;6.17;2.43;;;30.00;43.50;;;;;;5117445;22;20265;-91
2022/08/05 12:12:41;;;;;;;5.75;2.22;;;30.10;44.70;;;;;;5105913;28;20199;-91
2022/08/05 12:15:18;;;;;;;6.93;3.00;;;30.20;44.00;;;;;;5090022;28;20203;-93
2022/08/05 12:17:47;;;;;;;5.68;2.55;;;30.30;44.10;;;;;;5091293;28;20202;-92
2022/08/05 12:20:17;;;;;;;9.13;3.90;;;30.40;43.30;;;;;;5087305;28;20222;-90
2022/08/05 12:22:44;;;;;;;5.87;2.57;;;30.50;43.40;;;;;;5085650;28;20249;-93
2022/08/05 12:25:11;;;;;;;8.65;3.20;;;30.50;43.50;;;;;;5080226;28;20195;-91
2022/08/05 12:27:41;;;;;;;7.28;3.08;;;30.60;43.50;;;;;;5095079;28;20211;-92
2022/08/05 12:30:10;;;;;;;7.43;2.80;;;30.50;43.10;;;;;;5096023;28;20217;-92
2022/08/05 12:32:45;;;;;;;3.43;1.50;;;30.60;43.10;;;;;;5087779;28;20565;-92
2022/08/05 12:35:16;;;;;;;11.88;3.60;;;30.60;42.60;;;;;;5092323;28;20206;-93
2022/08/05 12:37:45;;;;;;;6.10;2.53;;;30.60;42.40;;;;;;5092009;28;20215;-92
2022/08/05 12:40:13;;;;;;;6.90;2.73;;;30.50;42.50;;;;;;5090118;28;20721;-93
2022/08/05 12:42:41;;;;;;;6.83;2.90;;;30.60;42.50;;;;;;5088468;28;20619;-92
2022/08/05 12:45:09;;;;;;;5.00;2.28;;;30.60;42.80;;;;;;5090090;28;20206;-93
2022/08/05 12:47:37;;;;;;;12.50;3.30;;;30.60;42.80;;;;;;5088406;28;20238;-93
2022/08/05 12:50:13;;;;;;;5.93;2.53;;;30.60;42.80;;;;;;5084534;28;20253;-93
2022/08/05 12:52:42;;;;;;;7.57;2.90;;;30.60;42.80;;;;;;5088671;28;20214;-94
2022/08/05 12:55:21;;;;;;;24.90;10.52;;;30.70;42.90;;;;;;5124160;22;20211;-92
2022/08/05 12:57:48;;;;;;;8.40;2.38;;;30.80;41.80;;;;;;5088546;28;20256;-92
2022/08/05 13:00:25;;;;;;;7.97;3.08;;;30.80;42.10;;;;;;5088050;28;20264;-91
2022/08/05 13:02:56;;;;;;;10.60;4.70;;;30.80;41.90;;;;;;5083519;28;20199;-93
2022/08/05 13:05:26;;;;;;;8.67;3.07;;;30.90;41.90;;;;;;5077852;28;20264;-94
2022/08/05 13:07:58;;;;;;;11.30;4.55;;;30.90;42.70;;;;;;5083864;28;20211;-91
2022/08/05 13:10:25;;;;;;;6.80;3.00;;;30.90;42.10;;;;;;5079157;28;20271;-93
2022/08/05 13:12:53;;;;;;;5.75;2.65;;;30.90;42.30;;;;;;5083749;28;20199;-92
2022/08/05 13:15:20;;;;;;;7.20;3.03;;;30.90;41.70;;;;;;5071905;28;20566;-91
2022/08/05 13:17:54;;;;;;;9.45;4.18;;;31.00;42.00;;;;;;5070083;28;20203;-92
2022/08/05 13:20:21;;;;;;;7.68;3.15;;;31.00;41.30;;;;;;5082717;28;20230;-91
2022/08/05 13:22:51;;;;;;;6.63;3.08;;;31.00;41.50;;;;;;5074763;28;20692;-93
2022/08/05 13:25:20;;;;;;;6.50;2.97;;;30.90;41.50;;;;;;5072576;28;20211;-94